Latest Weather Observations for Warracknabeal Airport

IDV60801

Issued at 7:42 pm EDT Monday 25 October 2021 (issued every 10 minutes, with the page automatically refreshed every 10 minutes)

About weather observations | Map of weather stations | Latest weather observations for VIC | Other Formats
Station Details ID: 078018 Name: WARRACKNABEAL AIRPORT Lat: -36.32 Lon: 142.42 Height: 118.3 m
Data from the previous 72 hours. | See also: Recent months at Warracknabeal Airport
Date/Time
EDT
Temp
°C
App
Temp
°C
Dew
Point
°C
Rel
Hum
%
Delta-T
°C
Wind Press
QNH
hPa
Press
MSL
hPa
Rain since
9am
mm
Dir  Spd
km/h
Gust
km/h
Spd
kts
Gust
kts
25/07:30pm 14.6 9.7 5.1 53 4.5 SE 20 28 11 15 1019.3 1019.2 0.0
25/07:00pm 15.8 10.1 5.1 49 5.1 SE 24 32 13 17 1019.0 1018.9 0.0
25/06:30pm 16.8 11.1 5.1 46 5.6 SE 24 35 13 19 1018.9 1018.8 0.0
25/06:00pm 17.8 12.8 4.7 42 6.3 ESE 20 30 11 16 1018.7 1018.6 0.0
25/05:30pm 18.7 13.6 4.1 38 7.0 SE 20 30 11 16 1018.7 1018.6 0.0
25/05:00pm 19.0 14.5 4.0 37 7.1 SSE 17 26 9 14 1018.8 1018.7 0.0
25/04:30pm 19.4 15.7 4.4 37 7.2 ESE 13 24 7 13 1018.9 1018.8 0.0
25/04:00pm 18.6 13.9 3.3 36 7.2 S 17 30 9 16 1019.2 1019.1 0.0
25/03:30pm 18.9 15.9 3.9 37 7.1 S 9 19 5 10 1019.7 1019.7 0.0
25/03:00pm 19.8 16.1 4.3 36 7.5 SE 13 28 7 15 1020.0 1020.0 0.0
25/02:30pm 18.3 14.6 2.6 35 7.2 S 11 22 6 12 1020.7 1020.7 0.0
25/02:00pm 18.7 16.2 4.5 39 6.8 SSW 7 11 4 6 1020.9 1020.9 0.0
25/01:30pm 18.0 14.0 3.1 37 6.9 SW 13 22 7 12 1021.4 1021.4 0.0
25/01:00pm 16.9 12.7 3.6 41 6.2 S 15 20 8 11 1021.8 1021.8 0.0
25/12:30pm 16.2 12.7 3.3 42 5.9 S 11 20 6 11 1022.3 1022.3 0.0
25/12:00pm 16.1 11.1 3.5 43 5.8 SSE 19 30 10 16 1022.7 1022.7 0.0
25/11:30am 14.8 10.8 3.0 45 5.3 S 13 32 7 17 1023.0 1023.0 0.0
25/11:00am 14.0 8.7 3.2 48 4.9 S 20 30 11 16 1023.2 1023.2 0.0
25/10:30am 13.0 7.7 3.1 51 4.4 S 20 30 11 16 1023.5 1023.5 0.0
25/10:00am 13.9 7.6 3.7 50 4.6 SSE 26 33 14 18 1023.5 1023.5 0.0
25/09:30am 12.5 6.9 3.2 53 4.1 SSE 22 32 12 17 1023.5 1023.5 0.0
25/09:00am 11.4 5.0 3.4 58 3.5 SSE 26 32 14 17 1023.2 1023.2 0.0
25/08:30am 9.4 5.3 4.6 72 2.1 S 15 22 8 12 1023.1 1023.1 0.0
25/08:00am 7.3 4.4 4.4 82 1.3 SW 9 13 5 7 1022.9 1022.9 0.0
25/07:30am 6.2 3.2 3.9 85 1.0 SW 9 13 5 7 1022.8 1022.8 0.0
25/07:00am 4.5 1.3 3.2 91 0.5 SW 9 11 5 6 1022.7 1022.7 0.0
25/06:30am 3.4 -0.3 2.4 93 0.4 SW 11 15 6 8 1022.4 1022.4 0.0
25/06:00am 2.4 -2.2 1.5 94 0.3 SW 15 17 8 9 1022.3 1022.3 0.0
25/05:30am 2.1 -2.1 1.4 95 0.3 SW 13 15 7 8 1022.3 1022.3 0.0
25/05:00am 2.0 -1.9 1.3 95 0.3 SW 11 13 6 7 1022.2 1022.2 0.0
25/04:30am 2.5 -1.3 1.5 93 0.4 SW 11 13 6 7 1022.3 1022.3 0.0
25/04:00am 3.4 -0.7 2.2 92 0.5 SW 13 15 7 8 1022.3 1022.3 0.0
25/03:30am 3.5 -0.6 2.2 91 0.5 SW 13 15 7 8 1022.3 1022.3 0.0
25/03:00am 4.0 0.0 2.8 92 0.5 S 13 15 7 8 1022.5 1022.5 0.0
25/02:30am 3.5 -0.2 2.6 94 0.4 S 11 13 6 7 1022.6 1022.6 0.0
25/02:00am 3.1 -0.6 2.1 93 0.4 S 11 13 6 7 1022.8 1022.8 0.0
25/01:30am 3.4 -0.7 2.4 93 0.4 S 13 15 7 8 1022.9 1022.9 0.0
25/01:00am 4.0 0.4 2.7 91 0.5 S 11 13 6 7 1023.2 1023.2 0.0
25/12:30am 5.7 1.9 3.7 87 0.8 S 13 17 7 9 1023.3 1023.3 0.0
25/12:00am 5.3 1.4 3.6 89 0.7 S 13 15 7 8 1023.4 1023.4 0.0
 
Date/Time
EDT
Temp
°C
App
Temp
°C
Dew
Point
°C
Rel
Hum
%
Delta-T
°C
Wind Press
QNH
hPa
Press
MSL
hPa
Rain since
9am
mm
Dir  Spd
km/h
Gust
km/h
Spd
kts
Gust
kts
24/11:30pm 6.0 2.3 4.2 88 0.8 S 13 17 7 9 1023.6 1023.6 0.0
24/11:00pm 6.3 2.5 4.1 86 0.9 S 13 15 7 8 1023.5 1023.5 0.0
24/10:30pm 7.6 3.9 4.6 81 1.3 S 13 17 7 9 1023.6 1023.6 0.0
24/10:00pm 8.2 4.5 4.6 78 1.6 S 13 17 7 9 1023.5 1023.5 0.0
24/09:30pm 8.8 4.8 4.8 76 1.8 S 15 17 8 9 1023.4 1023.4 0.0
24/09:00pm 9.9 5.9 5.1 72 2.2 S 15 17 8 9 1023.2 1023.2 0.0
24/08:30pm 11.5 7.2 5.2 65 2.9 S 17 20 9 11 1023.0 1023.0 0.0
24/08:00pm 12.7 9.1 4.9 59 3.6 S 13 17 7 9 1022.8 1022.8 0.0
24/07:30pm 13.8 8.3 3.9 51 4.5 S 22 30 12 16 1022.4 1022.4 0.0
24/07:00pm 15.1 9.9 3.6 46 5.3 S 20 26 11 14 1022.1 1022.1 0.0
24/06:30pm 15.7 9.3 3.2 43 5.7 SSW 26 33 14 18 1022.0 1022.0 0.0
24/06:00pm 17.1 10.9 1.9 36 6.8 SSW 24 41 13 22 1021.8 1021.8 0.0
24/05:30pm 17.8 11.5 1.7 34 7.3 SSW 24 33 13 18 1021.7 1021.7 0.0
24/05:00pm 17.9 11.7 2.2 35 7.1 SSW 24 35 13 19 1021.7 1021.7 0.0
24/04:30pm 18.3 12.5 2.2 34 7.4 SSW 22 33 12 18 1021.7 1021.7 0.0
24/04:00pm 17.6 10.5 1.6 34 7.2 S 28 37 15 20 1022.0 1022.0 0.0
24/03:30pm 17.3 10.8 2.9 38 6.6 S 26 33 14 18 1022.3 1022.3 0.0
24/03:00pm 16.7 9.7 2.0 37 6.6 S 28 43 15 23 1022.7 1022.7 0.0
24/02:30pm 17.1 10.4 1.5 35 7.0 SW 26 41 14 22 1022.9 1022.9 0.0
24/02:00pm 17.1 10.5 1.9 36 6.8 SSW 26 41 14 22 1023.1 1023.1 0.0
24/01:30pm 16.7 10.3 3.1 40 6.3 SSW 26 41 14 22 1023.5 1023.5 0.0
24/01:00pm 16.5 10.4 2.9 40 6.2 SSW 24 33 13 18 1023.7 1023.7 0.0
24/12:30pm 16.1 9.3 2.9 41 6.0 SSW 28 41 15 22 1024.1 1024.1 0.0
24/12:00pm 16.5 10.8 4.9 46 5.5 S 24 32 13 17 1024.3 1024.3 0.0
24/11:30am 15.8 9.7 2.9 42 5.9 SSW 24 37 13 20 1024.5 1024.5 0.0
24/11:00am 14.4 8.1 5.5 55 4.2 SSW 28 35 15 19 1024.6 1024.6 0.0
24/10:30am 13.6 7.2 5.0 56 4.0 SSW 28 33 15 18 1024.6 1024.6 0.0
24/10:00am 13.5 7.1 5.4 58 3.8 SSW 28 35 15 19 1024.5 1024.5 0.0
24/09:30am 12.9 8.5 7.4 69 2.7 SSW 20 28 11 15 1024.3 1024.3 0.0
24/09:00am 11.5 7.5 8.2 80 1.6 SSW 19 24 10 13 1024.3 1024.3 0.0
24/08:30am 9.3 5.6 8.1 92 0.6 SSW 17 24 9 13 1024.1 1024.1 0.0
24/08:00am 7.9 4.2 7.8 99 0.0 SW 17 22 9 12 1023.8 1023.8 0.0
24/07:30am 6.3 2.2 6.2 99 0.0 SSW 17 20 9 11 1023.5 1023.5 0.0
24/07:00am 5.6 1.4 5.5 99 0.0 SW 17 20 9 11 1023.2 1023.2 0.0
24/06:30am 5.8 1.6 5.7 99 0.0 SW 17 22 9 12 1022.9 1022.9 0.0
24/06:00am 5.2 0.9 5.1 99 0.0 SW 17 20 9 11 1022.8 1022.8 0.0
24/05:30am 5.2 1.6 5.1 99 0.0 WSW 13 15 7 8 1022.6 1022.6 0.0
24/05:00am 5.7 2.2 5.6 99 0.0 WSW 13 17 7 9 1022.6 1022.6 0.0
24/04:30am 5.0 1.0 4.9 99 0.0 WSW 15 19 8 10 1022.5 1022.5 0.0
24/04:00am 4.9 1.6 4.8 99 0.0 SSW 11 13 6 7 1022.4 1022.4 0.0
24/03:30am 5.6 2.1 5.5 99 0.0 SSW 13 15 7 8 1022.4 1022.4 0.0
24/03:00am 5.8 2.4 5.7 99 0.0 SSW 13 17 7 9 1022.2 1022.2 0.0
24/02:30am 5.9 2.5 5.8 99 0.0 SSW 13 17 7 9 1022.3 1022.3 0.0
24/02:00am 6.0 2.2 5.7 98 0.1 SSW 15 15 8 8 1022.6 1022.6 0.0
24/01:30am 6.4 3.8 6.0 97 0.2 SSW 9 11 5 6 1022.9 1022.9 0.0
24/01:00am 6.6 3.7 6.3 98 0.1 SSW 11 13 6 7 1022.7 1022.7 0.0
24/12:30am 7.1 4.3 7.0 99 0.0 SSW 11 13 6 7 1022.7 1022.7 0.0
24/12:00am 7.7 5.0 7.3 97 0.2 SSW 11 15 6 8 1022.4 1022.4 0.0
 
Date/Time
EDT
Temp
°C
App
Temp
°C
Dew
Point
°C
Rel
Hum
%
Delta-T
°C
Wind Press
QNH
hPa
Press
MSL
hPa
Rain since
9am
mm
Dir  Spd
km/h
Gust
km/h
Spd
kts
Gust
kts
23/11:30pm 8.7 5.8 8.3 97 0.2 SSW 13 17 7 9 1022.2 1022.2 0.0
23/11:00pm 9.2 6.0 8.3 94 0.4 SSW 15 17 8 9 1022.2 1022.2 0.0
23/10:30pm 9.7 6.5 8.5 92 0.6 SSW 15 17 8 9 1022.0 1022.0 0.0
23/10:00pm 9.8 6.9 8.2 90 0.8 SSW 13 17 7 9 1021.7 1021.7 0.0
23/09:30pm 10.6 7.6 7.8 83 1.4 SSW 13 17 7 9 1021.5 1021.5 0.0
23/09:00pm 11.4 7.6 7.5 77 1.9 S 17 24 9 13 1020.9 1020.9 0.0
23/08:30pm 11.7 8.6 7.2 74 2.2 S 13 15 7 8 1020.3 1020.3 0.0
23/08:00pm 13.4 9.5 7.2 66 3.0 S 17 20 9 11 1019.6 1019.5 0.0
23/07:30pm 15.2 9.8 6.2 55 4.4 SSW 24 35 13 19 1019.1 1019.0 0.0
23/07:00pm 16.2 9.9 5.5 49 5.1 SSW 28 39 15 21 1018.5 1018.4 0.0
23/06:30pm 17.0 10.1 4.7 44 5.9 SSW 30 37 16 20 1018.1 1018.0 0.0
23/06:00pm 17.5 10.1 4.8 43 6.1 SSW 33 43 18 23 1017.8 1017.7 0.0
23/05:30pm 18.1 10.5 5.7 44 6.1 SSW 35 46 19 25 1017.5 1017.4 0.0
23/05:00pm 19.3 11.7 5.7 41 6.7 SSW 35 44 19 24 1017.1 1017.0 0.0
23/04:30pm 20.0 12.2 1.4 29 8.5 SW 32 46 17 25 1016.9 1016.9 0.0
23/04:00pm 21.1 13.1 1.9 28 8.9 SW 33 48 18 26 1016.8 1016.8 0.0
23/03:30pm 20.4 12.3 1.3 28 8.7 SW 33 43 18 23 1016.7 1016.7 0.0
23/03:08pm 19.0 11.5 1.5 31 7.9 WSW 30 50 16 27 1016.7 1016.7 0.0
23/03:00pm 20.2 12.3 1.1 28 8.7 SW 32 46 17 25 1016.9 1016.9 0.0
23/02:30pm 20.4 13.2 3.2 32 8.2 WSW 30 41 16 22 1016.8 1016.8 0.0
23/02:00pm 20.5 12.5 3.7 33 8.0 WSW 35 48 19 26 1016.9 1016.9 0.0
23/01:30pm 19.2 12.4 4.9 39 7.0 SW 30 44 16 24 1016.9 1016.9 0.0
23/01:00pm 18.4 11.6 5.3 42 6.4 SW 30 44 16 24 1017.2 1017.1 0.0
23/12:30pm 19.1 12.7 8.4 50 5.6 WSW 32 41 17 22 1017.4 1017.3 0.0
23/12:00pm 17.9 11.8 8.2 53 5.0 SW 30 43 16 23 1017.4 1017.3 0.0
23/11:30am 16.2 10.6 10.1 67 3.2 WSW 30 44 16 24 1017.4 1017.3 0.0
23/11:00am 15.7 9.9 9.6 67 3.2 WSW 30 43 16 23 1017.3 1017.2 0.0
23/10:30am 15.3 9.9 10.9 75 2.4 WSW 30 37 16 20 1017.3 1017.2 0.0
23/10:00am 13.6 9.6 11.8 89 1.0 SW 24 32 13 17 1017.1 1017.0 0.0
23/09:30am 14.0 10.1 12.2 89 1.0 WSW 24 32 13 17 1016.9 1016.9 0.0
23/09:00am 14.0 9.6 11.7 86 1.2 WSW 26 33 14 18 1016.7 1016.7 0.0
23/08:30am 13.2 9.5 11.6 90 0.9 WSW 22 30 12 16 1016.5 1016.5 0.0
23/08:00am 12.9 9.7 12.0 94 0.5 WSW 20 26 11 14 1016.2 1016.2 0.0
23/07:30am 11.1 8.6 10.9 99 0.1 WSW 15 20 8 11 1015.8 1015.8 0.0
23/07:00am 10.7 8.8 10.5 99 0.1 SW 11 15 6 8 1015.6 1015.6 0.0
23/06:30am 10.9 9.1 10.7 99 0.1 SW 11 13 6 7 1015.3 1015.3 0.0
23/06:00am 10.6 9.1 10.4 99 0.1 SW 9 11 5 6 1015.0 1015.0 0.0
23/05:30am 10.6 8.3 10.4 99 0.1 SW 13 17 7 9 1014.9 1014.9 0.0
23/05:00am 10.4 7.3 10.2 99 0.1 SW 17 19 9 10 1014.7 1014.7 0.0
23/04:30am 9.3 6.7 9.2 99 0.0 WSW 13 17 7 9 1014.7 1014.7 0.0
23/04:00am 9.0 6.3 8.9 99 0.0 WSW 13 15 7 8 1014.6 1014.6 0.0
23/03:30am 9.7 7.6 9.6 99 0.1 S 11 13 6 7 1014.3 1014.3 0.0
23/03:00am 9.7 7.9 9.6 99 0.1 S 9 9 5 5 1014.0 1014.0 0.0
23/02:30am 10.2 8.2 10.1 99 0.1 S 11 11 6 6 1013.6 1013.6 0.0
23/02:00am 11.2 9.7 10.6 96 0.3 S 9 13 5 7 1013.7 1013.7 0.0
23/01:30am 11.9 9.7 10.8 93 0.6 S 13 17 7 9 1013.9 1013.9 0.0
23/01:00am 12.2 9.3 10.9 92 0.7 S 17 22 9 12 1014.0 1014.0 0.0
23/12:30am 12.8 9.9 10.9 88 1.0 SSW 17 22 9 12 1014.3 1014.3 0.0
23/12:00am 13.2 10.3 11.1 87 1.1 SSW 17 22 9 12 1014.3 1014.3 0.0
 
Date/Time
EDT
Temp
°C
App
Temp
°C
Dew
Point
°C
Rel
Hum
%
Delta-T
°C
Wind Press
QNH
hPa
Press
MSL
hPa
Rain since
9am
mm
Dir  Spd
km/h
Gust
km/h
Spd
kts
Gust
kts
22/11:30pm 13.5 9.4 11.4 87 1.1 SSW 24 32 13 17 1014.4 1014.4 0.0
22/11:00pm 14.1 10.2 12.1 88 1.1 SSW 24 33 13 18 1014.4 1014.4 0.0
22/10:30pm 14.8 10.3 12.5 86 1.3 SSW 28 37 15 20 1014.4 1014.4 0.0
22/10:00pm 15.1 11.3 13.5 90 0.9 SW 26 35 14 19 1014.1 1014.1 0.0
22/09:30pm 15.8 12.8 13.8 88 1.1 SSW 22 28 12 15 1013.6 1013.6 0.0
22/09:00pm 17.1 14.9 14.4 84 1.6 SSW 19 24 10 13 1013.0 1013.0 0.0
22/08:30pm 18.3 15.6 14.6 79 2.2 SSW 22 32 12 17 1012.6 1012.6 0.0
22/08:00pm 19.6 17.0 14.8 74 2.8 SSW 22 32 12 17 1012.3 1012.2 0.0

Other formats

Comma delimited format used in spreadsheet applications
http://www.bom.gov.au/fwo/IDV60801/IDV60801.94920.axf

JavaScript Object Notation format (JSON) in row-major order
http://www.bom.gov.au/fwo/IDV60801/IDV60801.94920.json

Data quality

Most of these data are generated automatically and are frequently updated. Quality checks on data are not normally performed. It is possible for incorrect values to appear. Refer to information at About Latest Weather Observations and please check the disclaimer before using these data.